Time;durP1;ratioP1;P1;durP2;ratioP2;P2;SDS_P1;SDS_P2;PMS_P1;PMS_P2;Temp;Humidity;BMP_temperature;BMP_pressure;BME280_temperature;BME280_humidity;BME280_pressure;Samples;Min_cycle;Max_cycle;Signal;HPM_P1;HPM_P2
2021/11/07 00:00:30;;;;;;;;;;;;;;;;;;5031802;28;19917;-84
2021/11/07 00:06:16;;;;;;;;;;;;;;;;;;5014757;28;20063;-84
2021/11/07 00:09:11;;;;;;;;;;;;;;;;;;5008833;28;19921;-83
2021/11/07 00:13:55;;;;;;;;;;;;;;;;;;5031653;28;19917;-84
2021/11/07 00:16:33;;;;;;;;;;;;;;;;;;5018586;28;19928;-84
2021/11/07 00:27:29;;;;;;;;;;;;;;;;;;5035384;28;19966;-84
2021/11/07 00:38:01;;;;;;;;;;;;;;;;;;5037450;28;19928;-84
2021/11/07 00:41:13;;;;;;;;;;;;;;;;;;5036010;28;20264;-84
2021/11/07 00:43:24;;;;;;;;;;;;;;;;;;5047932;28;19931;-84
2021/11/07 00:48:33;;;;;;;;;;;;;;;;;;5035858;28;19924;-84
2021/11/07 00:51:08;;;;;;;;;;;;;;;;;;5018812;28;20378;-84
2021/11/07 00:56:21;;;;;;;;;;;;;;;;;;5050771;28;19956;-84
2021/11/07 01:01:22;;;;;;;;;;;;;;;;;;5051783;28;19916;-84
2021/11/07 01:03:47;;;;;;;;;;;;;;;;;;5030889;28;19917;-84
2021/11/07 01:06:13;;;;;;;;;;;;;;;;;;5017111;28;19920;-83
2021/11/07 01:08:39;;;;;;;;;;;;;;;;;;5031740;28;19913;-83
2021/11/07 01:11:04;;;;;;;;;;;;;;;;;;5014623;28;19983;-83
2021/11/07 01:13:30;;;;;;;;;;;;;;;;;;5014257;28;19979;-83
2021/11/07 01:15:56;;;;;;;;;;;;;;;;;;5014903;28;19917;-84
2021/11/07 01:18:21;;;;;;;;;;;;;;;;;;5017504;28;20298;-83
2021/11/07 01:20:48;;;;;;;;;;;;;;;;;;5034295;28;20349;-83
2021/11/07 01:25:47;;;;;;;;;;;;;;;;;;5050645;28;20359;-83
2021/11/07 01:28:13;;;;;;;;;;;;;;;;;;5050631;28;19955;-83
2021/11/07 01:30:47;;;;;;;;;;;;;;;;;;5050656;28;19955;-83
2021/11/07 01:33:18;;;;;;;;;;;;;;;;;;5050944;28;19944;-83
2021/11/07 01:35:54;;;;;;;;;;;;;;;;;;5034100;28;20287;-82
2021/11/07 01:38:33;;;;;;;;;;;;;;;;;;5035638;28;19912;-83
2021/11/07 01:41:57;;;;;;;;;;;;;;;;;;5050084;28;19916;-83
2021/11/07 01:43:46;;;;;;;;;;;;;;;;;;5039623;28;19912;-83
2021/11/07 01:51:27;;;;;;;;;;;;;;;;;;5034979;28;20295;-83
2021/11/07 01:53:58;;;;;;;;;;;;;;;;;;5017640;28;19913;-83
2021/11/07 01:56:24;;;;;;;;;;;;;;;;;;5029540;28;20391;-83
2021/11/07 01:58:49;;;;;;;;;;;;;;;;;;5014039;28;19964;-83
2021/11/07 02:01:25;;;;;;;;;;;;;;;;;;5014000;28;19917;-84
2021/11/07 02:03:50;;;;;;;;;;;;;;;;;;5028405;28;19920;-84
2021/11/07 02:06:16;;;;;;;;;;;;;;;;;;5051193;28;19924;-84
2021/11/07 02:08:41;;;;;;;;;;;;;;;;;;5050266;28;20003;-83
2021/11/07 02:11:06;;;;;;;;;;;;;;;;;;5017198;28;19913;-83
2021/11/07 02:13:32;;;;;;;;;;;;;;;;;;5017344;28;20264;-82
2021/11/07 02:15:59;;;;;;;;;;;;;;;;;;5050209;28;19923;-83
2021/11/07 02:18:35;;;;;;;;;;;;;;;;;;5017698;28;19920;-82
2021/11/07 02:21:05;;;;;;;;;;;;;;;;;;5049828;28;20291;-82
2021/11/07 02:23:32;;;;;;;;;;;;;;;;;;5017284;28;19936;-82
2021/11/07 02:26:03;;;;;;;;;;;;;;;;;;5049632;28;19913;-82
2021/11/07 02:28:38;;;;;;;;;;;;;;;;;;5050069;28;19917;-82
2021/11/07 02:31:04;;;;;;;;;;;;;;;;;;5050176;28;19913;-83
2021/11/07 02:33:29;;;;;;;;;;;;;;;;;;5018286;28;19913;-83
2021/11/07 02:35:55;;;;;;;;;;;;;;;;;;5020524;28;19917;-83
2021/11/07 02:38:20;;;;;;;;;;;;;;;;;;5037196;28;19924;-83
2021/11/07 02:40:45;;;;;;;;;;;;;;;;;;5020494;28;20367;-83
2021/11/07 02:43:11;;;;;;;;;;;;;;;;;;5020576;28;19916;-83
2021/11/07 02:45:37;;;;;;;;;;;;;;;;;;5020535;28;19924;-83
2021/11/07 02:48:02;;;;;;;;;;;;;;;;;;5020893;28;19963;-84
2021/11/07 02:50:28;;;;;;;;;;;;;;;;;;5030956;28;19968;-84
2021/11/07 02:52:53;;;;;;;;;;;;;;;;;;5018999;28;20001;-84
2021/11/07 02:55:23;;;;;;;;;;;;;;;;;;5020484;28;19913;-84
2021/11/07 02:57:59;;;;;;;;;;;;;;;;;;5053458;28;19964;-83
2021/11/07 03:00:24;;;;;;;;;;;;;;;;;;5053277;28;20023;-84
2021/11/07 03:02:51;;;;;;;;;;;;;;;;;;5053101;28;20003;-84
2021/11/07 03:05:19;;;;;;;;;;;;;;;;;;5020481;28;19939;-84
2021/11/07 03:07:45;;;;;;;;;;;;;;;;;;5020528;28;20284;-84
2021/11/07 03:10:11;;;;;;;;;;;;;;;;;;5020229;28;19967;-84
2021/11/07 03:12:37;;;;;;;;;;;;;;;;;;5016547;28;20291;-84
2021/11/07 03:15:03;;;;;;;;;;;;;;;;;;5016842;28;19968;-84
2021/11/07 03:17:28;;;;;;;;;;;;;;;;;;5032314;28;19964;-84
2021/11/07 03:19:54;;;;;;;;;;;;;;;;;;5016583;28;20130;-84
2021/11/07 03:22:20;;;;;;;;;;;;;;;;;;5048674;28;19917;-84
2021/11/07 03:24:51;;;;;;;;;;;;;;;;;;5048930;28;19917;-84
2021/11/07 03:27:22;;;;;;;;;;;;;;;;;;5032060;28;20391;-83
2021/11/07 03:29:51;;;;;;;;;;;;;;;;;;5051453;28;19917;-85
2021/11/07 03:32:37;;;;;;;;;;;;;;;;;;5036007;28;19972;-84
2021/11/07 03:35:05;;;;;;;;;;;;;;;;;;5051383;28;19920;-84
2021/11/07 03:37:36;;;;;;;;;;;;;;;;;;5051710;28;19944;-84
2021/11/07 03:40:03;;;;;;;;;;;;;;;;;;5051610;28;19928;-83
2021/11/07 03:42:28;;;;;;;;;;;;;;;;;;5018784;28;20015;-84
2021/11/07 03:44:54;;;;;;;;;;;;;;;;;;5051023;28;20023;-84
2021/11/07 03:47:20;;;;;;;;;;;;;;;;;;5036293;28;19913;-84
2021/11/07 03:49:45;;;;;;;;;;;;;;;;;;5035788;28;19921;-84
2021/11/07 03:52:11;;;;;;;;;;;;;;;;;;5035970;28;19921;-84
2021/11/07 03:54:36;;;;;;;;;;;;;;;;;;5036651;28;20266;-84
2021/11/07 03:57:02;;;;;;;;;;;;;;;;;;5018946;28;19935;-84
2021/11/07 03:59:27;;;;;;;;;;;;;;;;;;5019099;28;20358;-84
2021/11/07 04:01:53;;;;;;;;;;;;;;;;;;5019444;28;20047;-84
2021/11/07 04:04:18;;;;;;;;;;;;;;;;;;5019357;28;19990;-83
2021/11/07 04:06:43;;;;;;;;;;;;;;;;;;5018671;28;20352;-83
2021/11/07 04:09:09;;;;;;;;;;;;;;;;;;5052080;28;19917;-83
2021/11/07 04:11:36;;;;;;;;;;;;;;;;;;5051835;28;19920;-84
2021/11/07 04:14:02;;;;;;;;;;;;;;;;;;5018958;28;19913;-84
2021/11/07 04:16:28;;;;;;;;;;;;;;;;;;5019084;28;20358;-85
2021/11/07 04:18:53;;;;;;;;;;;;;;;;;;5018776;28;19913;-84
2021/11/07 04:21:20;;;;;;;;;;;;;;;;;;5018539;28;19917;-84
2021/11/07 04:23:45;;;;;;;;;;;;;;;;;;5019327;28;19949;-85
2021/11/07 04:26:11;;;;;;;;;;;;;;;;;;5018509;28;19967;-84
2021/11/07 04:28:36;;;;;;;;;;;;;;;;;;5018943;28;19967;-84
2021/11/07 04:31:02;;;;;;;;;;;;;;;;;;5034969;28;19919;-83
2021/11/07 04:33:29;;;;;;;;;;;;;;;;;;5018926;28;19924;-84
2021/11/07 04:35:54;;;;;;;;;;;;;;;;;;5035134;28;19913;-84
2021/11/07 04:38:20;;;;;;;;;;;;;;;;;;5018727;28;19966;-83
2021/11/07 04:40:46;;;;;;;;;;;;;;;;;;5018627;28;19917;-84
2021/11/07 04:43:11;;;;;;;;;;;;;;;;;;5018331;28;19940;-84
2021/11/07 04:45:38;;;;;;;;;;;;;;;;;;5018539;28;20374;-84
2021/11/07 04:48:04;;;;;;;;;;;;;;;;;;5035215;28;20375;-84
2021/11/07 04:50:30;;;;;;;;;;;;;;;;;;5017983;28;19939;-85
2021/11/07 04:52:56;;;;;;;;;;;;;;;;;;5051761;28;20668;-84
2021/11/07 04:55:21;;;;;;;;;;;;;;;;;;5018457;28;19917;-85
2021/11/07 04:57:46;;;;;;;;;;;;;;;;;;5050586;28;19916;-84
2021/11/07 05:00:13;;;;;;;;;;;;;;;;;;5050937;28;19917;-84
2021/11/07 05:02:38;;;;;;;;;;;;;;;;;;5018095;28;19913;-84
2021/11/07 05:05:05;;;;;;;;;;;;;;;;;;5018063;28;19920;-84
2021/11/07 05:07:31;;;;;;;;;;;;;;;;;;5034759;28;19917;-84
2021/11/07 05:09:56;;;;;;;;;;;;;;;;;;5031993;28;19921;-84
2021/11/07 05:12:21;;;;;;;;;;;;;;;;;;5050866;28;20344;-86
2021/11/07 05:14:48;;;;;;;;;;;;;;;;;;5018371;28;19992;-85
2021/11/07 05:17:13;;;;;;;;;;;;;;;;;;5034914;28;19943;-85
2021/11/07 05:19:38;;;;;;;;;;;;;;;;;;5017747;28;19960;-84
2021/11/07 05:22:04;;;;;;;;;;;;;;;;;;5018113;28;19927;-84
2021/11/07 05:24:29;;;;;;;;;;;;;;;;;;5017631;28;20023;-84
2021/11/07 05:26:55;;;;;;;;;;;;;;;;;;5034033;28;19916;-85
2021/11/07 05:29:20;;;;;;;;;;;;;;;;;;5049877;28;19924;-84
2021/11/07 05:31:46;;;;;;;;;;;;;;;;;;5017584;28;19956;-84
2021/11/07 05:34:12;;;;;;;;;;;;;;;;;;5034270;28;19920;-84
2021/11/07 05:36:40;;;;;;;;;;;;;;;;;;5034068;28;19917;-85
2021/11/07 05:39:06;;;;;;;;;;;;;;;;;;5018260;28;19916;-84
2021/11/07 05:41:32;;;;;;;;;;;;;;;;;;5017171;28;19924;-83
2021/11/07 05:43:58;;;;;;;;;;;;;;;;;;5017538;28;19912;-83
2021/11/07 05:46:24;;;;;;;;;;;;;;;;;;5017722;28;19916;-84
2021/11/07 05:48:49;;;;;;;;;;;;;;;;;;5017220;28;19920;-84
2021/11/07 05:51:15;;;;;;;;;;;;;;;;;;5017757;28;19925;-84
2021/11/07 05:53:41;;;;;;;;;;;;;;;;;;5050688;28;19920;-84
2021/11/07 05:56:07;;;;;;;;;;;;;;;;;;5017137;28;20337;-84
2021/11/07 05:58:33;;;;;;;;;;;;;;;;;;5050320;28;19913;-84
2021/11/07 06:00:59;;;;;;;;;;;;;;;;;;5050477;28;19917;-84
2021/11/07 06:03:24;;;;;;;;;;;;;;;;;;5033891;28;19970;-85
2021/11/07 06:05:50;;;;;;;;;;;;;;;;;;5051346;28;20000;-84
2021/11/07 06:08:15;;;;;;;;;;;;;;;;;;5051190;28;19916;-85
2021/11/07 06:10:40;;;;;;;;;;;;;;;;;;5020553;28;19920;-84
2021/11/07 06:13:06;;;;;;;;;;;;;;;;;;5054010;28;19916;-84
2021/11/07 06:15:32;;;;;;;;;;;;;;;;;;5021598;28;19916;-83
2021/11/07 06:17:58;;;;;;;;;;;;;;;;;;5021327;28;19920;-84
2021/11/07 06:20:24;;;;;;;;;;;;;;;;;;5054427;28;19916;-84
2021/11/07 06:22:50;;;;;;;;;;;;;;;;;;5021203;28;20045;-84
2021/11/07 06:25:15;;;;;;;;;;;;;;;;;;5054489;28;19917;-84
2021/11/07 06:27:41;;;;;;;;;;;;;;;;;;5053757;28;19916;-84
2021/11/07 06:30:09;;;;;;;;;;;;;;;;;;5053676;28;19921;-84
2021/11/07 06:32:35;;;;;;;;;;;;;;;;;;5037660;28;20282;-84
2021/11/07 06:35:00;;;;;;;;;;;;;;;;;;5037603;28;19920;-84
2021/11/07 06:37:25;;;;;;;;;;;;;;;;;;5020929;28;20007;-84
2021/11/07 06:39:52;;;;;;;;;;;;;;;;;;5053694;28;19939;-84
2021/11/07 06:42:17;;;;;;;;;;;;;;;;;;5020947;28;20270;-84
2021/11/07 06:44:42;;;;;;;;;;;;;;;;;;5052961;28;20019;-84
2021/11/07 06:47:09;;;;;;;;;;;;;;;;;;5019464;28;19917;-84
2021/11/07 06:49:34;;;;;;;;;;;;;;;;;;5020419;28;19916;-85
2021/11/07 06:52:01;;;;;;;;;;;;;;;;;;5017613;28;20008;-87
2021/11/07 06:54:28;;;;;;;;;;;;;;;;;;5019263;28;19975;-85
2021/11/07 06:56:54;;;;;;;;;;;;;;;;;;5057118;28;20016;-86
2021/11/07 06:59:19;;;;;;;;;;;;;;;;;;5045069;28;20003;-85
2021/11/07 07:01:45;;;;;;;;;;;;;;;;;;5037422;28;19924;-87
2021/11/07 07:04:12;;;;;;;;;;;;;;;;;;5037768;28;19917;-87
2021/11/07 07:06:37;;;;;;;;;;;;;;;;;;5055955;28;19935;-86
2021/11/07 07:09:12;;;;;;;;;;;;;;;;;;5074089;28;20358;-88
2021/11/07 07:14:31;;;;;;;;;;;;;;;;;;5053510;28;20019;-88
2021/11/07 07:17:02;;;;;;;;;;;;;;;;;;5053580;28;19932;-84
2021/11/07 07:19:42;;;;;;;;;;;;;;;;;;5021629;28;20401;-86
2021/11/07 07:22:25;;;;;;;;;;;;;;;;;;5022693;28;19917;-86
2021/11/07 07:27:53;;;;;;;;;;;;;;;;;;5053546;28;20007;-89
2021/11/07 07:33:28;;;;;;;;;;;;;;;;;;5038144;28;20008;-87
2021/11/07 07:35:41;;;;;;;;;;;;;;;;;;5039467;28;19960;-88
2021/11/07 07:38:07;;;;;;;;;;;;;;;;;;5035742;28;19958;-87
2021/11/07 07:40:33;;;;;;;;;;;;;;;;;;5019501;28;20011;-88
2021/11/07 07:42:58;;;;;;;;;;;;;;;;;;5036673;28;20027;-88
2021/11/07 07:45:23;;;;;;;;;;;;;;;;;;5028288;28;19920;-89
2021/11/07 07:47:50;;;;;;;;;;;;;;;;;;5020182;28;20334;-88
2021/11/07 07:50:16;;;;;;;;;;;;;;;;;;5034570;28;19928;-86
2021/11/07 07:52:42;;;;;;;;;;;;;;;;;;5050815;28;20024;-85
2021/11/07 07:55:08;;;;;;;;;;;;;;;;;;5018173;28;20003;-86
2021/11/07 07:57:33;;;;;;;;;;;;;;;;;;5022773;28;19937;-86
2021/11/07 07:59:59;;;;;;;;;;;;;;;;;;5042770;28;19917;-86
2021/11/07 08:02:24;;;;;;;;;;;;;;;;;;5019536;28;19923;-86
2021/11/07 08:04:50;;;;;;;;;;;;;;;;;;5019045;28;20333;-84
2021/11/07 08:07:15;;;;;;;;;;;;;;;;;;5019030;28;19924;-83
2021/11/07 08:09:41;;;;;;;;;;;;;;;;;;5019157;28;20397;-83
2021/11/07 08:12:07;;;;;;;;;;;;;;;;;;5035123;28;20434;-83
2021/11/07 08:14:32;;;;;;;;;;;;;;;;;;5051098;28;19917;-84
2021/11/07 08:16:57;;;;;;;;;;;;;;;;;;5051339;28;20294;-83
2021/11/07 08:19:23;;;;;;;;;;;;;;;;;;5018444;28;20271;-83
2021/11/07 08:21:48;;;;;;;;;;;;;;;;;;5035375;28;19917;-83
2021/11/07 08:24:14;;;;;;;;;;;;;;;;;;5035699;28;19913;-85
2021/11/07 08:26:41;;;;;;;;;;;;;;;;;;5035214;28;20015;-85
2021/11/07 08:29:08;;;;;;;;;;;;;;;;;;5019057;28;19917;-83
2021/11/07 08:31:35;;;;;;;;;;;;;;;;;;5034816;28;19991;-83
2021/11/07 08:34:02;;;;;;;;;;;;;;;;;;5019037;28;20011;-83
2021/11/07 08:36:38;;;;;;;;;;;;;;;;;;5019329;28;20358;-84
2021/11/07 08:39:09;;;;;;;;;;;;;;;;;;5020092;28;19935;-83
2021/11/07 08:41:42;;;;;;;;;;;;;;;;;;5018547;28;19921;-83
2021/11/07 09:00:26;;;;;;;;;;;;;;;;;;5050990;28;19916;-86
2021/11/07 09:03:10;;;;;;;;;;;;;;;;;;5018746;28;19932;-87
2021/11/07 09:08:23;;;;;;;;;;;;;;;;;;5051200;28;19939;-86
2021/11/07 09:10:49;;;;;;;;;;;;;;;;;;5018089;28;19917;-86
2021/11/07 09:13:14;;;;;;;;;;;;;;;;;;5031068;28;20636;-86
2021/11/07 09:15:40;;;;;;;;;;;;;;;;;;5032623;28;20443;-82
2021/11/07 09:18:06;;;;;;;;;;;;;;;;;;5051096;28;19967;-81
2021/11/07 09:23:21;;;;;;;;;;;;;;;;;;5052300;28;19924;-82
2021/11/07 09:28:42;;;;;;;;;;;;;;;;;;5050892;28;19920;-84
2021/11/07 09:31:11;;;;;;;;;;;;;;;;;;5036989;28;19999;-84
2021/11/07 09:36:17;;;;;;;;;;;;;;;;;;5050702;28;20007;-84
2021/11/07 09:44:14;;;;;;;;;;;;;;;;;;5055052;28;19916;-85
2021/11/07 09:46:47;;;;;;;;;;;;;;;;;;5038445;28;19936;-86
2021/11/07 09:49:28;;;;;;;;;;;;;;;;;;5022443;28;19963;-85
2021/11/07 09:52:01;;;;;;;;;;;;;;;;;;5023932;28;20298;-85
2021/11/07 09:54:28;;;;;;;;;;;;;;;;;;5038960;28;19948;-87
2021/11/07 09:56:54;;;;;;;;;;;;;;;;;;5021467;28;19935;-85
2021/11/07 09:59:22;;;;;;;;;;;;;;;;;;5054477;28;19924;-84
2021/11/07 10:01:51;;;;;;;;;;;;;;;;;;5054863;28;19924;-84
2021/11/07 10:04:21;;;;;;;;;;;;;;;;;;5038942;28;20023;-85
2021/11/07 10:06:50;;;;;;;;;;;;;;;;;;5053245;28;19924;-85
2021/11/07 10:09:34;;;;;;;;;;;;;;;;;;5021159;28;19917;-85
2021/11/07 10:12:06;;;;;;;;;;;;;;;;;;5054191;28;20363;-85
2021/11/07 10:14:38;;;;;;;;;;;;;;;;;;5037925;28;20337;-84
2021/11/07 10:17:03;;;;;;;;;;;;;;;;;;5018553;28;19920;-85
2021/11/07 10:19:34;;;;;;;;;;;;;;;;;;5061612;28;19917;-85
2021/11/07 10:21:59;;;;;;;;;;;;;;;;;;5035057;28;19921;-85
2021/11/07 10:24:29;;;;;;;;;;;;;;;;;;5017572;28;20280;-85
2021/11/07 10:27:10;;;;;;;;;;;;;;;;;;5037067;28;19913;-85
2021/11/07 10:29:44;;;;;;;;;;;;;;;;;;5053624;28;19924;-85
2021/11/07 10:32:26;;;;;;;;;;;;;;;;;;5021924;28;19913;-85
2021/11/07 10:35:43;;;;;;;;;;;;;;;;;;5021749;28;19967;-85
2021/11/07 10:38:20;;;;;;;;;;;;;;;;;;5053797;28;19913;-85
2021/11/07 10:53:56;;;;;;;;;;;;;;;;;;5048294;28;20403;-84
2021/11/07 10:56:21;;;;;;;;;;;;;;;;;;5052899;28;19952;-85
2021/11/07 10:58:47;;;;;;;;;;;;;;;;;;5052988;28;20315;-85
2021/11/07 11:01:13;;;;;;;;;;;;;;;;;;5048273;28;19921;-85
2021/11/07 11:03:45;;;;;;;;;;;;;;;;;;5017392;28;19945;-85
2021/11/07 11:06:13;;;;;;;;;;;;;;;;;;5037090;28;19913;-85
2021/11/07 11:08:45;;;;;;;;;;;;;;;;;;5052912;28;20015;-85
2021/11/07 11:13:49;;;;;;;;;;;;;;;;;;5017469;28;19917;-85
2021/11/07 11:34:14;;;;;;;;;;;;;;;;;;5051511;28;20397;-85
2021/11/07 11:36:47;;;;;;;;;;;;;;;;;;5026865;28;19979;-85
2021/11/07 11:39:19;;;;;;;;;;;;;;;;;;5019083;28;19913;-86
2021/11/07 11:44:11;;;;;;;;;;;;;;;;;;5038419;28;19913;-85
2021/11/07 11:46:44;;;;;;;;;;;;;;;;;;5019644;28;20294;-85
2021/11/07 11:52:19;;;;;;;;;;;;;;;;;;5051551;28;19921;-86
2021/11/07 12:00:32;;;;;;;;;;;;;;;;;;5052057;28;19922;-86
2021/11/07 12:03:05;;;;;;;;;;;;;;;;;;5035594;28;20075;-86
2021/11/07 12:05:43;;;;;;;;;;;;;;;;;;5051506;28;19913;-86
2021/11/07 12:10:40;;;;;;;;;;;;;;;;;;5052251;28;19916;-86
2021/11/07 12:13:25;;;;;;;;;;;;;;;;;;5035351;28;20018;-85
2021/11/07 12:15:53;;;;;;;;;;;;;;;;;;5051978;28;19913;-87
2021/11/07 12:18:19;;;;;;;;;;;;;;;;;;5019521;28;20367;-85
2021/11/07 12:20:44;;;;;;;;;;;;;;;;;;5014240;28;20119;-84
2021/11/07 12:23:17;;;;;;;;;;;;;;;;;;5032368;28;19975;-84
2021/11/07 12:25:43;;;;;;;;;;;;;;;;;;5024874;28;19913;-84
2021/11/07 12:28:09;;;;;;;;;;;;;;;;;;4998949;28;19935;-84
2021/11/07 12:30:34;;;;;;;;;;;;;;;;;;5050997;28;19955;-84
2021/11/07 12:33:11;;;;;;;;;;;;;;;;;;5034754;28;19967;-84
2021/11/07 12:36:00;;;;;;;;;;;;;;;;;;5031731;28;19917;-83
2021/11/07 12:41:14;;;;;;;;;;;;;;;;;;5031623;28;19974;-83
2021/11/07 12:43:40;;;;;;;;;;;;;;;;;;5029950;28;19975;-84
2021/11/07 12:46:22;;;;;;;;;;;;;;;;;;5021258;28;20012;-84
2021/11/07 12:48:48;;;;;;;;;;;;;;;;;;5015499;28;19913;-83
2021/11/07 12:51:16;;;;;;;;;;;;;;;;;;5020194;28;19924;-83
2021/11/07 12:53:57;;;;;;;;;;;;;;;;;;5050099;28;19939;-84
2021/11/07 12:56:37;;;;;;;;;;;;;;;;;;5052276;28;20402;-84
2021/11/07 12:59:09;;;;;;;;;;;;;;;;;;5050921;28;19913;-84
2021/11/07 13:01:54;;;;;;;;;;;;;;;;;;5034863;28;19956;-83
2021/11/07 13:04:20;;;;;;;;;;;;;;;;;;5052314;28;19913;-84
2021/11/07 13:06:47;;;;;;;;;;;;;;;;;;5031727;28;19951;-83
2021/11/07 13:09:12;;;;;;;;;;;;;;;;;;5018668;28;19948;-83
2021/11/07 13:11:42;;;;;;;;;;;;;;;;;;5047262;28;19944;-84
2021/11/07 13:14:19;;;;;;;;;;;;;;;;;;5048470;28;20015;-84
2021/11/07 13:17:52;;;;;;;;;;;;;;;;;;5045231;28;19929;-84
2021/11/07 13:19:44;;;;;;;;;;;;;;;;;;5046599;28;19916;-85
2021/11/07 13:25:14;;;;;;;;;;;;;;;;;;5022271;28;19917;-82
2021/11/07 13:27:47;;;;;;;;;;;;;;;;;;5046323;28;19923;-82
2021/11/07 13:30:16;;;;;;;;;;;;;;;;;;5045772;28;19962;-83
2021/11/07 13:32:42;;;;;;;;;;;;;;;;;;5030854;28;19975;-82
2021/11/07 13:35:07;;;;;;;;;;;;;;;;;;5013196;28;19921;-82
2021/11/07 13:37:40;;;;;;;;;;;;;;;;;;5025836;28;19925;-82
2021/11/07 13:40:08;;;;;;;;;;;;;;;;;;5016129;28;19920;-83
2021/11/07 13:42:34;;;;;;;;;;;;;;;;;;5026388;28;19916;-83
2021/11/07 13:45:01;;;;;;;;;;;;;;;;;;5050764;28;19924;-83
2021/11/07 13:47:31;;;;;;;;;;;;;;;;;;5033181;28;19916;-84
2021/11/07 13:49:56;;;;;;;;;;;;;;;;;;5049128;28;19920;-83
2021/11/07 13:52:21;;;;;;;;;;;;;;;;;;5050215;28;20525;-82
2021/11/07 13:54:47;;;;;;;;;;;;;;;;;;5050888;28;19924;-83
2021/11/07 13:57:12;;;;;;;;;;;;;;;;;;5033672;28;19924;-83
2021/11/07 13:59:42;;;;;;;;;;;;;;;;;;5050114;28;19949;-84
2021/11/07 14:02:25;;;;;;;;;;;;;;;;;;5013648;28;20331;-82
2021/11/07 14:04:51;;;;;;;;;;;;;;;;;;5017284;28;19963;-83
2021/11/07 14:07:21;;;;;;;;;;;;;;;;;;5017864;28;20374;-84
2021/11/07 14:09:55;;;;;;;;;;;;;;;;;;5015837;28;19921;-84
2021/11/07 14:12:32;;;;;;;;;;;;;;;;;;5050318;28;19912;-82
2021/11/07 14:15:07;;;;;;;;;;;;;;;;;;5033958;28;19917;-82
2021/11/07 14:17:34;;;;;;;;;;;;;;;;;;5050350;28;20011;-83
2021/11/07 14:19:59;;;;;;;;;;;;;;;;;;5039884;28;19921;-83
2021/11/07 14:22:25;;;;;;;;;;;;;;;;;;5030402;28;19924;-83
2021/11/07 14:24:51;;;;;;;;;;;;;;;;;;5046181;28;20000;-82
2021/11/07 14:27:22;;;;;;;;;;;;;;;;;;5021998;28;19921;-82
2021/11/07 14:29:57;;;;;;;;;;;;;;;;;;5044228;28;20264;-82
2021/11/07 14:32:28;;;;;;;;;;;;;;;;;;5035182;28;19918;-82
2021/11/07 14:35:47;;;;;;;;;;;;;;;;;;5044382;28;19966;-82
2021/11/07 14:37:56;;;;;;;;;;;;;;;;;;5042587;28;19913;-82
2021/11/07 14:40:43;;;;;;;;;;;;;;;;;;5052495;28;19990;-82
2021/11/07 14:43:29;;;;;;;;;;;;;;;;;;5030964;28;19917;-82
2021/11/07 14:53:43;;;;;;;;;;;;;;;;;;5053635;28;19921;-82
2021/11/07 14:58:58;;;;;;;;;;;;;;;;;;5052568;28;19940;-82
2021/11/07 15:01:31;;;;;;;;;;;;;;;;;;5053587;28;19924;-81
2021/11/07 15:06:45;;;;;;;;;;;;;;;;;;5049669;28;20414;-80
2021/11/07 15:09:12;;;;;;;;;;;;;;;;;;5052966;28;19925;-80
2021/11/07 15:14:25;;;;;;;;;;;;;;;;;;5064360;28;19924;-82
2021/11/07 15:17:02;;;;;;;;;;;;;;;;;;5073579;28;20278;-81
2021/11/07 15:19:33;;;;;;;;;;;;;;;;;;5006403;28;19952;-80
2021/11/07 15:22:18;;;;;;;;;;;;;;;;;;5071553;28;20030;-80
2021/11/07 15:24:46;;;;;;;;;;;;;;;;;;5058164;28;20006;-79
2021/11/07 15:27:12;;;;;;;;;;;;;;;;;;5054923;28;19923;-79
2021/11/07 15:30:11;;;;;;;;;;;;;;;;;;5052405;28;19920;-79
2021/11/07 15:32:38;;;;;;;;;;;;;;;;;;5046840;28;19929;-79
2021/11/07 15:35:22;;;;;;;;;;;;;;;;;;5019376;28;20303;-79
2021/11/07 15:37:48;;;;;;;;;;;;;;;;;;5053162;28;19913;-79
2021/11/07 15:40:13;;;;;;;;;;;;;;;;;;5036456;28;19914;-79
2021/11/07 15:42:39;;;;;;;;;;;;;;;;;;5032415;28;20394;-79
2021/11/07 15:45:08;;;;;;;;;;;;;;;;;;5034161;28;19913;-79
2021/11/07 15:47:40;;;;;;;;;;;;;;;;;;5052703;28;19919;-79
2021/11/07 15:52:57;;;;;;;;;;;;;;;;;;5052185;28;20379;-79
2021/11/07 16:00:26;;;;;;;;;;;;;;;;;;5052673;28;19996;-79
2021/11/07 16:10:59;;;;;;;;;;;;;;;;;;5051830;28;20371;-80
2021/11/07 16:18:49;;;;;;;;;;;;;;;;;;5052075;28;20362;-79
2021/11/07 16:21:17;;;;;;;;;;;;;;;;;;5051834;28;19927;-79
2021/11/07 16:23:43;;;;;;;;;;;;;;;;;;5034878;28;19917;-79
2021/11/07 16:26:13;;;;;;;;;;;;;;;;;;5051262;28;20002;-79
2021/11/07 16:28:39;;;;;;;;;;;;;;;;;;5052236;28;19916;-79
2021/11/07 16:31:08;;;;;;;;;;;;;;;;;;5035187;28;19912;-79
2021/11/07 16:33:38;;;;;;;;;;;;;;;;;;5051508;28;19959;-80
2021/11/07 16:36:09;;;;;;;;;;;;;;;;;;5051752;28;20383;-80
2021/11/07 16:44:02;;;;;;;;;;;;;;;;;;5051412;28;20016;-80
2021/11/07 16:46:30;;;;;;;;;;;;;;;;;;5052996;28;20400;-79
2021/11/07 16:48:57;;;;;;;;;;;;;;;;;;5035295;28;19960;-80
2021/11/07 16:51:26;;;;;;;;;;;;;;;;;;5035164;28;20410;-79
2021/11/07 16:53:57;;;;;;;;;;;;;;;;;;5035144;28;19924;-80
2021/11/07 16:56:22;;;;;;;;;;;;;;;;;;5030143;28;19952;-80
2021/11/07 17:01:15;;;;;;;;;;;;;;;;;;5031171;28;19992;-80
2021/11/07 17:03:42;;;;;;;;;;;;;;;;;;5034873;28;20438;-79
2021/11/07 17:06:22;;;;;;;;;;;;;;;;;;5050750;28;19943;-79
2021/11/07 17:08:56;;;;;;;;;;;;;;;;;;5039403;28;20366;-80
2021/11/07 17:11:24;;;;;;;;;;;;;;;;;;5017519;28;19927;-79
2021/11/07 17:13:51;;;;;;;;;;;;;;;;;;5035160;28;19939;-79
2021/11/07 17:16:24;;;;;;;;;;;;;;;;;;5050993;28;20437;-79
2021/11/07 17:18:49;;;;;;;;;;;;;;;;;;5050484;28;20007;-80
2021/11/07 17:21:31;;;;;;;;;;;;;;;;;;5021093;28;20023;-80
2021/11/07 17:26:42;;;;;;;;;;;;;;;;;;5050397;28;20011;-79
2021/11/07 17:29:08;;;;;;;;;;;;;;;;;;5050391;28;20219;-79
2021/11/07 17:31:42;;;;;;;;;;;;;;;;;;5034152;28;20282;-79
2021/11/07 17:34:16;;;;;;;;;;;;;;;;;;5049750;28;19952;-79
2021/11/07 17:36:55;;;;;;;;;;;;;;;;;;5050750;28;19913;-80
2021/11/07 17:50:01;;;;;;;;;;;;;;;;;;5050359;28;20377;-80
2021/11/07 17:55:15;;;;;;;;;;;;;;;;;;5051665;28;19921;-80
2021/11/07 17:57:41;;;;;;;;;;;;;;;;;;5050006;28;20346;-80
2021/11/07 18:00:10;;;;;;;;;;;;;;;;;;5050234;28;19924;-80
2021/11/07 18:02:35;;;;;;;;;;;;;;;;;;5031804;28;19971;-79
2021/11/07 18:05:02;;;;;;;;;;;;;;;;;;5033940;28;20003;-80
2021/11/07 18:07:31;;;;;;;;;;;;;;;;;;5051172;28;19928;-81
2021/11/07 18:10:09;;;;;;;;;;;;;;;;;;5038867;28;19931;-81
2021/11/07 18:12:35;;;;;;;;;;;;;;;;;;5037565;28;20426;-81
2021/11/07 18:15:02;;;;;;;;;;;;;;;;;;5036426;28;19920;-81
2021/11/07 18:17:28;;;;;;;;;;;;;;;;;;5052738;28;19931;-80
2021/11/07 18:19:54;;;;;;;;;;;;;;;;;;5030039;28;19917;-80
2021/11/07 18:25:01;;;;;;;;;;;;;;;;;;5035869;28;20278;-83
2021/11/07 18:27:28;;;;;;;;;;;;;;;;;;5051219;28;20394;-81
2021/11/07 18:29:57;;;;;;;;;;;;;;;;;;5052110;28;19924;-82
2021/11/07 18:32:23;;;;;;;;;;;;;;;;;;5052263;28;19917;-81
2021/11/07 18:34:48;;;;;;;;;;;;;;;;;;5015968;28;19920;-81
2021/11/07 18:37:14;;;;;;;;;;;;;;;;;;5051572;28;19924;-82
2021/11/07 18:39:40;;;;;;;;;;;;;;;;;;5018544;28;20436;-81
2021/11/07 18:42:05;;;;;;;;;;;;;;;;;;5019567;28;19916;-83
2021/11/07 18:44:31;;;;;;;;;;;;;;;;;;5054126;28;20274;-82
2021/11/07 18:46:56;;;;;;;;;;;;;;;;;;5020327;28;19919;-85
2021/11/07 18:49:26;;;;;;;;;;;;;;;;;;5052136;28;19971;-84
2021/11/07 18:51:52;;;;;;;;;;;;;;;;;;5052233;28;19917;-82
2021/11/07 18:54:18;;;;;;;;;;;;;;;;;;5052052;28;20015;-82
2021/11/07 18:56:43;;;;;;;;;;;;;;;;;;5018845;28;19939;-82
2021/11/07 18:59:09;;;;;;;;;;;;;;;;;;5043813;28;19913;-81
2021/11/07 19:01:34;;;;;;;;;;;;;;;;;;5017089;28;19913;-81
2021/11/07 19:04:00;;;;;;;;;;;;;;;;;;5049645;28;19912;-81
2021/11/07 19:06:27;;;;;;;;;;;;;;;;;;5020221;28;19979;-83
2021/11/07 19:08:52;;;;;;;;;;;;;;;;;;5053489;28;19917;-82
2021/11/07 19:11:19;;;;;;;;;;;;;;;;;;5036238;28;19916;-83
2021/11/07 19:13:44;;;;;;;;;;;;;;;;;;5053204;28;19936;-82
2021/11/07 19:16:10;;;;;;;;;;;;;;;;;;5067726;28;20371;-83
2021/11/07 19:18:35;;;;;;;;;;;;;;;;;;5056945;28;19920;-84
2021/11/07 19:21:01;;;;;;;;;;;;;;;;;;5056350;28;19916;-83
2021/11/07 19:23:26;;;;;;;;;;;;;;;;;;5073548;28;20539;-83
2021/11/07 19:25:52;;;;;;;;;;;;;;;;;;5057279;28;19921;-84
2021/11/07 19:28:21;;;;;;;;;;;;;;;;;;5033804;28;20019;-84
2021/11/07 19:30:47;;;;;;;;;;;;;;;;;;5015425;28;19917;-84
2021/11/07 19:33:12;;;;;;;;;;;;;;;;;;5053344;28;19971;-84
2021/11/07 19:35:38;;;;;;;;;;;;;;;;;;5036511;28;19952;-83
2021/11/07 19:38:04;;;;;;;;;;;;;;;;;;5020072;28;19917;-84
2021/11/07 19:40:31;;;;;;;;;;;;;;;;;;5036010;28;20318;-83
2021/11/07 19:42:56;;;;;;;;;;;;;;;;;;5019472;28;19916;-84
2021/11/07 19:45:22;;;;;;;;;;;;;;;;;;5019424;28;20396;-83
2021/11/07 19:47:50;;;;;;;;;;;;;;;;;;5019313;28;19925;-83
2021/11/07 19:50:16;;;;;;;;;;;;;;;;;;5051982;28;20395;-84
2021/11/07 19:52:44;;;;;;;;;;;;;;;;;;5035521;28;20205;-83
2021/11/07 19:55:10;;;;;;;;;;;;;;;;;;5036190;28;19967;-84
2021/11/07 19:57:35;;;;;;;;;;;;;;;;;;5021573;28;19979;-84
2021/11/07 20:00:19;;;;;;;;;;;;;;;;;;5015967;28;20386;-84
2021/11/07 20:10:21;;;;;;;;;;;;;;;;;;5058542;28;19917;-85
2021/11/07 20:12:46;;;;;;;;;;;;;;;;;;5052334;28;19966;-85
2021/11/07 20:15:12;;;;;;;;;;;;;;;;;;5052392;28;19921;-84
2021/11/07 20:17:37;;;;;;;;;;;;;;;;;;5051867;28;20383;-84
2021/11/07 20:20:06;;;;;;;;;;;;;;;;;;5052131;28;19967;-84